createdAt,value
2022-10-13T00:00:53.073Z,19.15
2022-10-13T00:03:39.997Z,14.48
2022-10-13T00:06:26.711Z,16.33
2022-10-13T00:09:11.805Z,18.33
2022-10-13T00:11:58.216Z,20.58
2022-10-13T00:14:43.504Z,19.25
2022-10-13T00:17:29.141Z,17.13
2022-10-13T00:20:14.772Z,20.52
2022-10-13T00:23:00.462Z,21.20
2022-10-13T00:25:48.586Z,23.80
2022-10-13T00:28:34.288Z,26.05
2022-10-13T00:31:23.145Z,23.08
2022-10-13T00:34:09.279Z,23.52
2022-10-13T00:36:54.744Z,27.48
2022-10-13T00:39:40.437Z,28.83
2022-10-13T00:42:27.200Z,22.40
2022-10-13T00:45:18.505Z,24.98
2022-10-13T00:48:03.859Z,21.27
2022-10-13T00:50:49.622Z,23.92
2022-10-13T00:53:37.922Z,28.92
2022-10-13T00:56:25.989Z,30.27
2022-10-13T00:59:23.100Z,23.08
2022-10-13T01:02:09.207Z,26.30
2022-10-13T01:04:56.932Z,22.30
2022-10-13T01:07:42.438Z,26.20
2022-10-13T01:11:04.380Z,19.90
2022-10-13T01:14:21.057Z,26.63
2022-10-13T01:17:06.433Z,23.63
2022-10-13T01:20:15.089Z,24.15
2022-10-13T01:23:18.519Z,21.95
2022-10-13T01:26:28.060Z,21.98
2022-10-13T01:29:20.040Z,23.42
2022-10-13T01:32:05.297Z,22.88
2022-10-13T01:35:14.859Z,25.80
2022-10-13T01:38:08.225Z,24.48
2022-10-13T01:41:10.687Z,23.58
2022-10-13T01:44:01.707Z,23.35
2022-10-13T01:46:50.179Z,21.50
2022-10-13T01:49:36.838Z,28.08
2022-10-13T01:52:26.234Z,22.88
2022-10-13T01:55:12.983Z,23.90
2022-10-13T01:57:58.698Z,27.73
2022-10-13T02:01:00.080Z,22.27
2022-10-13T02:04:12.339Z,22.00
2022-10-13T02:07:30.325Z,23.35
2022-10-13T02:10:51.362Z,24.42
2022-10-13T02:13:38.210Z,28.30
2022-10-13T02:16:25.068Z,26.20
2022-10-13T02:19:14.922Z,23.63
2022-10-13T02:22:00.670Z,27.75
2022-10-13T02:24:46.164Z,19.98
2022-10-13T02:27:31.636Z,21.52
2022-10-13T02:30:23.592Z,19.52
2022-10-13T02:33:09.892Z,16.42
2022-10-13T02:35:55.546Z,19.02
2022-10-13T02:38:41.098Z,21.20
2022-10-13T02:41:26.742Z,17.58
2022-10-13T02:44:12.424Z,18.40
2022-10-13T02:46:57.982Z,13.02
2022-10-13T02:49:43.432Z,19.23
2022-10-13T02:52:29.139Z,18.95
2022-10-13T02:55:14.683Z,17.38
2022-10-13T02:58:00.338Z,19.80
2022-10-13T03:00:46.090Z,17.58
2022-10-13T03:03:33.315Z,17.77
2022-10-13T03:06:19.112Z,16.08
2022-10-13T03:09:04.928Z,19.98
2022-10-13T03:11:50.695Z,19.02
2022-10-13T03:14:36.453Z,15.35
2022-10-13T03:17:21.835Z,19.08
2022-10-13T03:20:08.592Z,18.15
2022-10-13T03:22:53.926Z,20.13
2022-10-13T03:25:39.608Z,19.35
2022-10-13T03:28:25.273Z,16.08
2022-10-13T03:31:12.795Z,20.20
2022-10-13T03:33:58.419Z,25.27
2022-10-13T03:36:43.947Z,25.70
2022-10-13T03:39:29.263Z,22.67
2022-10-13T03:42:14.853Z,17.80
2022-10-13T03:45:00.241Z,17.52
2022-10-13T03:47:45.962Z,19.70
2022-10-13T03:50:31.441Z,15.35
2022-10-13T03:53:17.247Z,15.80
2022-10-13T03:56:03.971Z,14.52
2022-10-13T03:58:54.059Z,17.85
2022-10-13T04:01:40.315Z,17.17
2022-10-13T04:04:25.939Z,14.38
2022-10-13T04:07:11.579Z,15.20
2022-10-13T04:09:57.165Z,14.48
2022-10-13T04:12:42.968Z,14.35
2022-10-13T04:15:28.447Z,17.05
2022-10-13T04:18:13.896Z,17.88
2022-10-13T04:20:59.228Z,19.27
2022-10-13T04:23:44.524Z,22.10
2022-10-13T04:26:33.260Z,22.20
2022-10-13T04:29:18.725Z,21.63
2022-10-13T04:32:04.214Z,16.63
2022-10-13T04:34:49.541Z,17.13
2022-10-13T04:37:35.055Z,17.83
2022-10-13T04:40:20.821Z,21.05
2022-10-13T04:43:06.355Z,19.60
2022-10-13T04:45:52.056Z,20.20
2022-10-13T04:48:37.508Z,23.65
2022-10-13T04:51:24.669Z,20.15
2022-10-13T04:54:10.359Z,21.77
2022-10-13T04:56:55.612Z,18.05
2022-10-13T04:59:41.229Z,19.05
2022-10-13T05:02:26.591Z,17.95
2022-10-13T05:05:12.157Z,20.98
2022-10-13T05:07:57.720Z,26.77
2022-10-13T05:10:43.320Z,21.42
2022-10-13T05:13:29.944Z,28.20
2022-10-13T05:16:17.626Z,23.98
2022-10-13T05:19:03.662Z,23.15
2022-10-13T05:21:49.238Z,23.52
2022-10-13T05:24:37.529Z,19.30
2022-10-13T05:27:23.303Z,15.75
2022-10-13T05:30:09.456Z,17.25
2022-10-13T05:32:55.260Z,27.02
2022-10-13T05:35:40.838Z,24.65
2022-10-13T05:38:26.312Z,22.73
2022-10-13T05:41:13.910Z,24.65
2022-10-13T05:44:02.841Z,21.33
2022-10-13T05:46:48.045Z,23.10
2022-10-13T05:49:36.376Z,22.08
2022-10-13T05:52:23.861Z,28.75
2022-10-13T05:55:11.023Z,29.23
2022-10-13T05:57:56.450Z,24.65
2022-10-13T06:00:43.166Z,21.73
2022-10-13T06:03:29.990Z,28.73
2022-10-13T06:06:15.857Z,22.88
2022-10-13T06:09:01.679Z,24.85
2022-10-13T06:11:47.550Z,28.23
2022-10-13T06:14:32.800Z,28.60
2022-10-13T06:17:18.468Z,27.25
2022-10-13T06:20:06.114Z,22.75
2022-10-13T06:22:51.358Z,23.20
2022-10-13T06:25:37.079Z,17.13
2022-10-13T06:28:22.619Z,17.35
2022-10-13T06:31:08.231Z,18.63
2022-10-13T06:33:54.112Z,15.90
2022-10-13T06:36:39.274Z,22.05
2022-10-13T06:39:24.801Z,22.27
2022-10-13T06:42:10.218Z,20.25
2022-10-13T06:44:55.913Z,18.42
2022-10-13T06:47:41.555Z,21.48
2022-10-13T06:50:27.732Z,18.83
2022-10-13T06:53:13.107Z,22.60
2022-10-13T06:56:00.678Z,19.38
2022-10-13T06:58:46.087Z,18.05
2022-10-13T07:01:31.687Z,20.17
2022-10-13T07:04:17.084Z,21.42
2022-10-13T07:07:03.040Z,23.67
2022-10-13T07:09:49.435Z,20.23
2022-10-13T07:12:35.162Z,20.27
2022-10-13T07:15:20.804Z,19.38
2022-10-13T07:18:06.874Z,18.77
2022-10-13T07:20:52.467Z,20.10
2022-10-13T07:23:38.194Z,17.25
2022-10-13T07:26:23.633Z,19.38
2022-10-13T07:29:10.435Z,23.83
2022-10-13T07:31:55.892Z,23.75
2022-10-13T07:34:41.485Z,18.27
2022-10-13T07:37:27.462Z,18.20
2022-10-13T07:40:13.116Z,20.98
2022-10-13T07:42:58.455Z,19.20
2022-10-13T07:45:44.253Z,18.92
2022-10-13T07:48:30.252Z,19.40
2022-10-13T07:51:16.090Z,21.90
2022-10-13T07:54:01.600Z,21.13
2022-10-13T07:56:46.892Z,22.35
2022-10-13T07:59:33.975Z,21.42
2022-10-13T08:02:20.012Z,18.92
2022-10-13T08:05:06.175Z,19.98
2022-10-13T08:07:54.684Z,21.42
2022-10-13T08:10:43.192Z,23.08
2022-10-13T08:13:28.762Z,17.35
2022-10-13T08:16:14.329Z,18.77
2022-10-13T08:19:00.331Z,17.80
2022-10-13T08:22:01.812Z,20.30
2022-10-13T08:24:47.970Z,18.13
2022-10-13T08:27:50.081Z,15.55
2022-10-13T08:30:37.865Z,13.68
2022-10-13T08:33:24.318Z,18.50
2022-10-13T08:36:10.001Z,13.93
2022-10-13T08:38:55.332Z,16.73
2022-10-13T08:41:46.574Z,17.40
2022-10-13T08:47:52.062Z,19.30
2022-10-13T08:50:42.736Z,16.73
2022-10-13T08:53:32.584Z,13.77
2022-10-13T08:56:28.848Z,16.40
2022-10-13T08:59:16.942Z,18.02
2022-10-13T09:02:09.724Z,15.80
2022-10-13T09:04:58.890Z,12.38
2022-10-13T09:07:46.417Z,15.55
2022-10-13T09:10:31.429Z,12.48
2022-10-13T09:13:17.428Z,18.25
2022-10-13T09:16:03.294Z,14.73
2022-10-13T09:18:48.936Z,14.10
2022-10-13T09:21:34.398Z,13.85
2022-10-13T09:24:21.942Z,14.13
2022-10-13T09:27:14.359Z,14.60
2022-10-13T09:30:35.380Z,13.02
2022-10-13T09:33:23.675Z,17.55
2022-10-13T09:36:14.711Z,14.23
2022-10-13T09:39:15.966Z,17.20
2022-10-13T09:42:25.790Z,16.15
2022-10-13T09:45:18.002Z,17.40
2022-10-13T09:48:14.663Z,14.00
2022-10-13T09:51:00.843Z,12.00
2022-10-13T09:53:47.625Z,18.98
2022-10-13T09:56:47.724Z,13.20
2022-10-13T09:59:41.448Z,19.33
2022-10-13T10:02:33.816Z,16.42
2022-10-13T10:05:26.684Z,19.42
2022-10-13T10:08:33.674Z,16.23
2022-10-13T10:11:51.966Z,15.45
2022-10-13T10:14:38.446Z,18.85
2022-10-13T10:17:36.772Z,12.27
2022-10-13T10:20:25.194Z,20.13
2022-10-13T10:23:27.829Z,19.23
2022-10-13T10:26:39.370Z,10.77
2022-10-13T10:29:41.461Z,13.00
2022-10-13T10:32:29.477Z,12.45
2022-10-13T10:35:40.539Z,10.95
2022-10-13T10:38:52.014Z,13.40
2022-10-13T10:41:54.356Z,12.45
2022-10-13T10:44:43.742Z,14.10
2022-10-13T10:47:43.305Z,13.10
2022-10-13T10:50:29.681Z,17.33
2022-10-13T10:53:39.274Z,17.13
2022-10-13T10:56:47.489Z,14.30
2022-10-13T10:59:59.307Z,18.02
2022-10-13T11:02:53.844Z,17.25
2022-10-13T11:05:58.379Z,14.80
2022-10-13T11:08:48.501Z,18.20
2022-10-13T11:11:37.911Z,12.50
2022-10-13T11:14:28.024Z,15.68
2022-10-13T11:17:30.630Z,12.65
2022-10-13T11:20:21.872Z,15.60
2022-10-13T11:23:13.472Z,15.13
2022-10-13T11:26:40.767Z,15.95
2022-10-13T11:29:46.756Z,14.00
2022-10-13T11:32:34.732Z,13.27
2022-10-13T11:35:27.377Z,10.80
2022-10-13T11:38:28.526Z,15.52
2022-10-13T11:41:24.641Z,11.95
2022-10-13T11:44:48.112Z,13.15
2022-10-13T11:48:23.510Z,14.38
2022-10-13T11:51:13.961Z,11.05
2022-10-13T11:54:20.457Z,13.60
2022-10-13T11:57:26.291Z,14.55
2022-10-13T12:00:15.784Z,9.63
2022-10-13T12:03:01.418Z,18.60
2022-10-13T12:05:49.515Z,8.45
2022-10-13T12:08:36.834Z,11.05
2022-10-13T12:11:33.852Z,11.98
2022-10-13T12:14:32.471Z,15.20
2022-10-13T12:17:27.067Z,12.68
2022-10-13T12:20:25.348Z,12.45
2022-10-13T12:23:17.498Z,9.70
2022-10-13T12:26:04.075Z,12.90
2022-10-13T12:28:58.261Z,10.88
2022-10-13T12:31:49.373Z,8.53
2022-10-13T12:34:36.428Z,9.25
2022-10-13T12:37:33.560Z,12.65
2022-10-13T12:40:19.734Z,12.35
2022-10-13T12:43:05.686Z,10.82
2022-10-13T12:45:52.063Z,14.65
2022-10-13T12:48:40.707Z,11.65
2022-10-13T12:51:28.126Z,12.85
2022-10-13T12:54:30.411Z,16.75
2022-10-13T12:57:20.389Z,15.57
2022-10-13T13:00:18.700Z,11.57
2022-10-13T13:03:06.853Z,13.45
2022-10-13T13:06:08.742Z,10.70
2022-10-13T13:09:12.444Z,14.10
2022-10-13T13:12:13.181Z,10.82
2022-10-13T13:14:58.861Z,14.68
2022-10-13T13:17:57.716Z,10.57
2022-10-13T13:20:44.078Z,10.20
2022-10-13T13:23:34.345Z,9.25
2022-10-13T13:26:22.431Z,11.07
2022-10-13T13:29:10.800Z,13.70
2022-10-13T13:31:56.091Z,13.73
2022-10-13T13:34:42.011Z,9.70
2022-10-13T13:37:35.474Z,10.85
2022-10-13T13:40:23.003Z,14.70
2022-10-13T13:43:09.166Z,9.68
2022-10-13T13:45:54.317Z,11.38
2022-10-13T13:48:40.017Z,10.77
2022-10-13T13:51:25.561Z,8.52
2022-10-13T13:54:11.164Z,11.35
2022-10-13T13:56:58.808Z,13.25
2022-10-13T13:59:45.320Z,11.60
2022-10-13T14:02:30.631Z,16.58
2022-10-13T14:05:16.573Z,14.38
2022-10-13T14:08:02.388Z,8.02
2022-10-13T14:10:47.735Z,11.65
2022-10-13T14:13:34.094Z,8.95
2022-10-13T14:16:19.619Z,10.20
2022-10-13T14:19:05.007Z,9.18
2022-10-13T14:21:50.532Z,11.55
2022-10-13T14:24:35.574Z,11.50
2022-10-13T14:27:21.409Z,7.55
2022-10-13T14:30:07.847Z,8.27
2022-10-13T14:32:53.412Z,10.30
2022-10-13T14:35:38.977Z,14.75
2022-10-13T14:38:24.622Z,10.25
2022-10-13T14:41:10.045Z,12.80
2022-10-13T14:43:57.051Z,12.27
2022-10-13T14:46:45.769Z,6.88
2022-10-13T14:49:32.496Z,14.80
2022-10-13T14:52:18.019Z,8.23
2022-10-13T14:55:03.248Z,8.80
2022-10-13T14:57:48.774Z,9.30
2022-10-13T15:00:34.550Z,11.45
2022-10-13T15:03:19.807Z,8.70
2022-10-13T15:06:05.383Z,8.73
2022-10-13T15:08:51.868Z,10.50
2022-10-13T15:11:37.379Z,9.38
2022-10-13T15:14:22.767Z,7.88
2022-10-13T15:17:08.215Z,9.75
2022-10-13T15:19:53.494Z,7.88
2022-10-13T15:22:39.071Z,13.45
2022-10-13T15:25:24.333Z,10.02
2022-10-13T15:28:09.784Z,9.52
2022-10-13T15:30:55.602Z,11.05
2022-10-13T15:33:52.240Z,11.20
2022-10-13T15:36:39.077Z,10.55
2022-10-13T15:39:24.641Z,7.47
2022-10-13T15:42:11.597Z,8.93
2022-10-13T15:45:09.530Z,11.10
2022-10-13T15:47:57.684Z,12.10
2022-10-13T15:50:42.748Z,8.50
2022-10-13T15:53:29.662Z,7.80
2022-10-13T15:56:15.566Z,10.55
2022-10-13T15:59:01.234Z,7.80
2022-10-13T16:01:46.578Z,12.00
2022-10-13T16:04:37.135Z,8.95
2022-10-13T16:07:22.958Z,13.43
2022-10-13T16:10:10.690Z,8.70
2022-10-13T16:12:56.140Z,12.25
2022-10-13T16:15:43.013Z,9.18
2022-10-13T16:18:32.802Z,6.28
2022-10-13T16:21:21.247Z,13.63
2022-10-13T16:24:07.004Z,39.47
2022-10-13T16:26:52.167Z,22.95
2022-10-13T16:29:37.870Z,7.53
2022-10-13T16:32:23.772Z,9.13
2022-10-13T16:35:09.232Z,9.32
2022-10-13T16:37:54.471Z,10.20
2022-10-13T16:40:40.131Z,45.22
2022-10-13T16:43:25.394Z,53.53
2022-10-13T16:46:13.387Z,27.73
2022-10-13T16:48:59.523Z,17.42
2022-10-13T16:51:44.839Z,23.08
2022-10-13T16:54:32.657Z,18.33
2022-10-13T16:57:18.277Z,13.10
2022-10-13T17:00:05.441Z,14.25
2022-10-13T17:02:50.692Z,14.07
2022-10-13T17:05:36.288Z,15.40
2022-10-13T17:08:21.660Z,12.10
2022-10-13T17:11:08.009Z,13.40
2022-10-13T17:13:53.746Z,40.00
2022-10-13T17:16:39.200Z,20.33
2022-10-13T17:19:25.086Z,11.50
2022-10-13T17:22:10.401Z,11.82
2022-10-13T17:24:55.954Z,11.98
2022-10-13T17:27:41.447Z,11.65
2022-10-13T17:30:27.087Z,9.18
2022-10-13T17:33:12.667Z,12.35
2022-10-13T17:36:07.533Z,15.73
2022-10-13T17:38:55.161Z,10.05
2022-10-13T17:41:40.846Z,10.27
2022-10-13T17:44:26.441Z,9.15
2022-10-13T17:47:11.773Z,10.95
2022-10-13T17:49:57.387Z,14.90
2022-10-13T17:52:43.626Z,11.25
2022-10-13T17:55:30.837Z,17.83
2022-10-13T17:58:16.209Z,22.80
2022-10-13T18:01:16.140Z,20.13
2022-10-13T18:04:08.528Z,21.92
2022-10-13T18:06:54.031Z,22.00
2022-10-13T18:09:39.485Z,22.30
2022-10-13T18:12:24.924Z,23.13
2022-10-13T18:15:10.765Z,28.38
2022-10-13T18:17:56.273Z,21.80
2022-10-13T18:20:41.677Z,20.27
2022-10-13T18:23:29.092Z,20.45
2022-10-13T18:26:16.741Z,16.67
2022-10-13T18:29:03.849Z,20.83
2022-10-13T18:31:49.606Z,15.82
2022-10-13T18:34:35.191Z,21.85
2022-10-13T18:37:20.725Z,29.10
2022-10-13T18:40:07.320Z,29.88
2022-10-13T18:42:54.800Z,20.98
2022-10-13T18:45:40.715Z,16.13
2022-10-13T18:48:26.273Z,17.20
2022-10-13T18:51:14.472Z,18.35
2022-10-13T18:54:00.431Z,19.48
2022-10-13T18:56:46.017Z,16.48
2022-10-13T18:59:31.403Z,14.60
2022-10-13T19:02:16.956Z,21.15
2022-10-13T19:05:02.695Z,17.77
2022-10-13T19:07:47.750Z,14.20
2022-10-13T19:10:33.220Z,17.58
2022-10-13T19:13:18.992Z,14.25
2022-10-13T19:16:04.524Z,15.35
2022-10-13T19:18:50.969Z,16.27
2022-10-13T19:21:38.014Z,15.77
2022-10-13T19:24:23.552Z,18.05
2022-10-13T19:27:09.051Z,14.77
2022-10-13T19:29:54.899Z,12.77
2022-10-13T19:32:40.603Z,14.93
2022-10-13T19:35:26.302Z,12.75
2022-10-13T19:38:12.695Z,12.73
2022-10-13T19:41:03.963Z,13.70
2022-10-13T19:43:50.545Z,16.88
2022-10-13T19:46:36.623Z,13.50
2022-10-13T19:49:25.971Z,12.98
2022-10-13T19:52:11.548Z,13.18
2022-10-13T19:54:58.295Z,13.30
2022-10-13T19:57:43.952Z,14.13
2022-10-13T20:00:29.699Z,15.02
2022-10-13T20:03:14.922Z,14.88
2022-10-13T20:06:04.495Z,15.98
2022-10-13T20:08:49.983Z,16.90
2022-10-13T20:11:35.550Z,14.32
2022-10-13T20:14:22.149Z,19.63
2022-10-13T20:17:07.625Z,17.08
2022-10-13T20:19:53.109Z,15.32
2022-10-13T20:22:39.770Z,18.33
2022-10-13T20:25:25.128Z,18.92
2022-10-13T20:28:10.392Z,23.75
2022-10-13T20:30:55.770Z,15.98
2022-10-13T20:33:41.924Z,15.07
2022-10-13T20:36:28.182Z,14.75
2022-10-13T20:39:13.861Z,15.90
2022-10-13T20:41:59.408Z,18.88
2022-10-13T20:44:44.849Z,15.50
2022-10-13T20:47:30.451Z,14.75
2022-10-13T20:50:16.719Z,14.88
2022-10-13T20:53:03.783Z,10.63
2022-10-13T20:55:59.644Z,13.32
2022-10-13T20:58:45.638Z,12.40
2022-10-13T21:01:31.269Z,14.95
2022-10-13T21:04:16.563Z,13.88
2022-10-13T21:07:02.115Z,12.40
2022-10-13T21:09:53.434Z,14.95
2022-10-13T21:12:39.392Z,15.32
2022-10-13T21:15:25.014Z,13.52
2022-10-13T21:18:11.362Z,15.30
2022-10-13T21:21:03.091Z,13.30
2022-10-13T21:23:53.295Z,9.40
2022-10-13T21:26:39.668Z,13.25
2022-10-13T21:29:25.438Z,10.98
2022-10-13T21:32:11.409Z,12.30
2022-10-13T21:34:56.903Z,8.90
2022-10-13T21:37:42.819Z,8.55
2022-10-13T21:40:27.986Z,10.07
2022-10-13T21:43:13.442Z,10.13
2022-10-13T21:46:21.355Z,15.10
2022-10-13T21:49:06.682Z,12.38
2022-10-13T21:51:52.299Z,13.23
2022-10-13T21:54:38.000Z,12.68
2022-10-13T21:57:23.485Z,10.77
2022-10-13T22:00:10.039Z,12.77
2022-10-13T22:02:55.959Z,13.18
2022-10-13T22:05:41.337Z,10.55
2022-10-13T22:08:37.972Z,16.05
2022-10-13T22:11:26.999Z,11.57
2022-10-13T22:14:12.882Z,14.93
2022-10-13T22:16:58.546Z,14.63
2022-10-13T22:19:43.815Z,15.60
2022-10-13T22:22:31.036Z,12.57
2022-10-13T22:25:16.452Z,15.95
2022-10-13T22:28:02.156Z,14.38
2022-10-13T22:30:48.238Z,15.35
2022-10-13T22:33:35.940Z,19.02
2022-10-13T22:36:23.896Z,20.77
2022-10-13T22:39:10.249Z,13.50
2022-10-13T22:41:55.803Z,15.63
2022-10-13T22:44:41.647Z,21.75
2022-10-13T22:47:27.208Z,17.95
2022-10-13T22:50:12.976Z,13.40
2022-10-13T22:52:58.444Z,18.40
2022-10-13T22:55:43.995Z,12.43
2022-10-13T22:58:29.850Z,14.77
2022-10-13T23:01:15.931Z,12.80
2022-10-13T23:04:01.453Z,18.45
2022-10-13T23:06:46.921Z,12.40
2022-10-13T23:09:32.607Z,12.25
2022-10-13T23:12:17.924Z,12.02
2022-10-13T23:15:04.014Z,17.10
2022-10-13T23:17:49.585Z,15.32
2022-10-13T23:20:38.867Z,15.35
2022-10-13T23:23:24.352Z,12.07
2022-10-13T23:26:12.666Z,11.50
2022-10-13T23:28:58.725Z,16.38
2022-10-13T23:31:43.924Z,12.40
2022-10-13T23:34:29.373Z,12.82
2022-10-13T23:37:15.217Z,15.75
2022-10-13T23:40:00.497Z,14.82
2022-10-13T23:42:46.031Z,14.20
2022-10-13T23:45:31.832Z,15.63
2022-10-13T23:48:17.418Z,14.93
2022-10-13T23:51:12.207Z,14.95
2022-10-13T23:53:58.365Z,16.98
2022-10-13T23:56:44.307Z,15.98
2022-10-13T23:59:30.038Z,15.63
